Time,TemperatureF,DewpointF,PressureIn,WindDirection,WindDirectionDegrees,WindSpeedMPH,WindSpeedGustMPH,Humidity,HourlyPrecipIn,Conditions,Clouds,dailyrainin,SoftwareType,DateUTC
2013-02-28 00:12:00,58.1,51.0,29.96,NNW,334,5.0,-999.0,76,-99.99,,,0.00,weatherlink.com 1.10,2013-02-28 05:12:00,
2013-02-28 00:26:00,57.9,51.0,29.96,NW,306,5.0,-999.0,77,-99.99,,,0.00,weatherlink.com 1.10,2013-02-28 05:26:00,
2013-02-28 00:42:00,57.6,50.0,29.95,NW,323,4.0,-999.0,76,-99.99,,,0.00,weatherlink.com 1.10,2013-02-28 05:42:00,
2013-02-28 00:56:00,57.6,50.0,29.95,NNW,342,5.0,-999.0,76,-99.99,,,0.00,weatherlink.com 1.10,2013-02-28 05:56:00,
2013-02-28 01:11:00,57.5,50.0,29.95,NW,313,3.0,-999.0,76,-99.99,,,0.00,weatherlink.com 1.10,2013-02-28 06:11:00,
2013-02-28 01:26:00,57.3,50.0,29.95,WSW,255,5.0,-999.0,76,-99.99,,,0.00,weatherlink.com 1.10,2013-02-28 06:26:00,
2013-02-28 01:41:00,57.2,50.0,29.95,NW,313,4.0,-999.0,77,-99.99,,,0.00,weatherlink.com 1.10,2013-02-28 06:41:00,
2013-02-28 01:56:00,57.1,50.0,29.95,WNW,299,1.0,-999.0,77,-99.99,,,0.00,weatherlink.com 1.10,2013-02-28 06:56:00,
2013-02-28 02:27:00,56.8,50.0,29.94,WSW,256,1.0,-999.0,78,-99.99,,,0.00,weatherlink.com 1.10,2013-02-28 07:27:00,
2013-02-28 02:41:00,56.7,50.0,29.95,NNW,343,2.0,-999.0,78,-99.99,,,0.00,weatherlink.com 1.10,2013-02-28 07:41:00,
2013-02-28 02:56:00,56.5,50.0,29.94,WNW,302,7.0,-999.0,79,-99.99,,,0.00,weatherlink.com 1.10,2013-02-28 07:56:00,
2013-02-28 03:11:00,56.3,50.0,29.93,NW,315,4.0,-999.0,80,-99.99,,,0.00,weatherlink.com 1.10,2013-02-28 08:11:00,
2013-02-28 03:27:00,56.2,50.0,29.94,NNW,342,2.0,-999.0,80,-99.99,,,0.00,weatherlink.com 1.10,2013-02-28 08:27:00,
2013-02-28 03:41:00,56.2,50.0,29.94,NW,320,0.0,-999.0,80,-99.99,,,0.00,weatherlink.com 1.10,2013-02-28 08:41:00,
2013-02-28 03:56:00,56.0,50.0,29.93,NW,319,0.0,-999.0,80,-99.99,,,0.00,weatherlink.com 1.10,2013-02-28 08:56:00,
2013-02-28 04:11:00,55.8,50.0,29.93,WNW,300,2.0,-999.0,80,-99.99,,,0.00,weatherlink.com 1.10,2013-02-28 09:11:00,
2013-02-28 04:26:00,55.6,50.0,29.93,WNW,301,0.0,-999.0,81,-99.99,,,0.00,weatherlink.com 1.10,2013-02-28 09:26:00,
2013-02-28 04:41:00,55.4,50.0,29.93,WNW,301,1.0,-999.0,82,-99.99,,,0.00,weatherlink.com 1.10,2013-02-28 09:41:00,
2013-02-28 04:56:00,55.1,50.0,29.94,WNW,301,0.0,-999.0,82,-99.99,,,0.00,weatherlink.com 1.10,2013-02-28 09:56:00,
2013-02-28 05:11:00,55.0,50.0,29.95,WNW,301,0.0,-999.0,83,-99.99,,,0.00,weatherlink.com 1.10,2013-02-28 10:11:00,
2013-02-28 05:26:00,54.6,50.0,29.94,WNW,301,2.0,-999.0,83,-99.99,,,0.00,weatherlink.com 1.10,2013-02-28 10:26:00,
2013-02-28 05:41:00,54.6,50.0,29.95,WNW,301,0.0,-999.0,83,-99.99,,,0.00,weatherlink.com 1.10,2013-02-28 10:41:00,
2013-02-28 05:56:00,54.4,50.0,29.96,WNW,285,5.0,-999.0,84,-99.99,,,0.00,weatherlink.com 1.10,2013-02-28 10:56:00,
2013-02-28 06:11:00,54.6,50.0,29.97,WNW,284,0.0,-999.0,84,-99.99,,,0.00,weatherlink.com 1.10,2013-02-28 11:11:00,
2013-02-28 06:26:00,54.4,50.0,29.97,WNW,282,0.0,-999.0,84,-99.99,,,0.00,weatherlink.com 1.10,2013-02-28 11:26:00,
2013-02-28 06:41:00,54.5,50.0,29.97,WNW,282,0.0,-999.0,85,-99.99,,,0.00,weatherlink.com 1.10,2013-02-28 11:41:00,
2013-02-28 06:56:00,54.5,50.0,29.97,WNW,282,0.0,-999.0,85,-99.99,,,0.00,weatherlink.com 1.10,2013-02-28 11:56:00,
2013-02-28 07:11:00,54.5,50.0,29.98,WSW,257,1.0,-999.0,86,-99.99,,,0.00,weatherlink.com 1.10,2013-02-28 12:11:00,
2013-02-28 07:26:00,55.1,51.0,29.98,WSW,257,2.0,-999.0,87,-99.99,,,0.00,weatherlink.com 1.10,2013-02-28 12:26:00,
2013-02-28 07:41:00,56.0,52.0,29.99,WSW,247,2.0,-999.0,86,-99.99,,,0.00,weatherlink.com 1.10,2013-02-28 12:41:00,
2013-02-28 07:56:00,56.8,52.0,29.99,WSW,248,0.0,-999.0,85,-99.99,,,0.00,weatherlink.com 1.10,2013-02-28 12:56:00,
2013-02-28 08:12:00,57.9,53.0,30.00,WSW,248,0.0,-999.0,83,-99.99,,,0.00,weatherlink.com 1.10,2013-02-28 13:12:00,
2013-02-28 08:26:00,59.0,53.0,30.00,NNW,332,0.0,-999.0,80,-99.99,,,0.00,weatherlink.com 1.10,2013-02-28 13:26:00,
2013-02-28 08:41:00,59.2,52.0,30.00,NW,318,2.0,-999.0,78,-99.99,,,0.00,weatherlink.com 1.10,2013-02-28 13:41:00,
2013-02-28 08:56:00,59.6,53.0,30.00,NW,308,8.0,-999.0,78,-99.99,,,0.00,weatherlink.com 1.10,2013-02-28 13:56:00,
2013-02-28 09:11:00,60.3,53.0,30.00,WSW,249,2.0,-999.0,76,-99.99,,,0.00,weatherlink.com 1.10,2013-02-28 14:11:00,
2013-02-28 09:26:00,61.1,53.0,30.00,NW,304,4.0,-999.0,74,-99.99,,,0.00,weatherlink.com 1.10,2013-02-28 14:26:00,
2013-02-28 09:41:00,62.4,53.0,30.00,WNW,289,4.0,-999.0,71,-99.99,,,0.00,weatherlink.com 1.10,2013-02-28 14:41:00,
2013-02-28 09:56:00,64.0,53.0,30.00,North,351,6.0,-999.0,68,-99.99,,,0.00,weatherlink.com 1.10,2013-02-28 14:56:00,
2013-02-28 10:11:00,65.2,53.0,29.99,West,275,6.0,-999.0,66,-99.99,,,0.00,weatherlink.com 1.10,2013-02-28 15:11:00,
2013-02-28 10:26:00,66.0,53.0,29.99,North,350,4.0,-999.0,63,-99.99,,,0.00,weatherlink.com 1.10,2013-02-28 15:26:00,
2013-02-28 10:41:00,66.0,53.0,29.99,West,279,8.0,-999.0,63,-99.99,,,0.00,weatherlink.com 1.10,2013-02-28 15:41:00,
2013-02-28 10:56:00,66.0,52.0,29.99,West,262,12.0,-999.0,61,-99.99,,,0.00,weatherlink.com 1.10,2013-02-28 15:56:00,
2013-02-28 11:11:00,66.3,53.0,29.99,WSW,248,5.0,-999.0,62,-99.99,,,0.00,weatherlink.com 1.10,2013-02-28 16:11:00,
2013-02-28 11:26:00,67.8,52.0,29.99,SW,214,1.0,-999.0,58,-99.99,,,0.00,weatherlink.com 1.10,2013-02-28 16:26:00,
2013-02-28 11:41:00,68.0,52.0,29.98,West,266,6.0,-999.0,57,-99.99,,,0.00,weatherlink.com 1.10,2013-02-28 16:41:00,
2013-02-28 11:56:00,67.6,52.0,29.97,NE,40,5.0,-999.0,57,-99.99,,,0.00,weatherlink.com 1.10,2013-02-28 16:56:00,
2013-02-28 12:11:00,68.6,52.0,29.97,WNW,284,3.0,-999.0,56,-99.99,,,0.00,weatherlink.com 1.10,2013-02-28 17:11:00,
2013-02-28 12:27:00,68.8,52.0,29.96,NW,323,2.0,-999.0,55,-99.99,,,0.00,weatherlink.com 1.10,2013-02-28 17:27:00,
2013-02-28 12:42:00,69.0,52.0,29.95,West,267,4.0,-999.0,55,-99.99,,,0.00,weatherlink.com 1.10,2013-02-28 17:42:00,
2013-02-28 12:56:00,70.1,52.0,29.94,NW,308,0.0,-999.0,53,-99.99,,,0.00,weatherlink.com 1.10,2013-02-28 17:56:00,
2013-02-28 13:11:00,70.6,52.0,29.93,WNW,285,4.0,-999.0,53,-99.99,,,0.00,weatherlink.com 1.10,2013-02-28 18:11:00,
2013-02-28 13:26:00,71.4,53.0,29.92,WSW,242,4.0,-999.0,52,-99.99,,,0.00,weatherlink.com 1.10,2013-02-28 18:26:00,
2013-02-28 13:41:00,71.2,53.0,29.91,NW,323,0.0,-999.0,53,-99.99,,,0.00,weatherlink.com 1.10,2013-02-28 18:41:00,
2013-02-28 13:56:00,72.6,53.0,29.90,NNW,333,0.0,-999.0,50,-99.99,,,0.00,weatherlink.com 1.10,2013-02-28 18:56:00,
2013-02-28 14:11:00,72.5,53.0,29.90,NW,317,7.0,-999.0,50,-99.99,,,0.00,weatherlink.com 1.10,2013-02-28 19:11:00,
2013-02-28 14:26:00,72.0,52.0,29.89,West,263,2.0,-999.0,49,-99.99,,,0.00,weatherlink.com 1.10,2013-02-28 19:26:00,
2013-02-28 14:42:00,72.8,52.0,29.89,West,272,2.0,-999.0,48,-99.99,,,0.00,weatherlink.com 1.10,2013-02-28 19:42:00,
2013-02-28 14:56:00,74.2,50.0,29.89,WSW,257,13.0,-999.0,43,-99.99,,,0.00,weatherlink.com 1.10,2013-02-28 19:56:00,
2013-02-28 15:11:00,74.3,49.0,29.89,NNW,348,8.0,-999.0,41,-99.99,,,0.00,weatherlink.com 1.10,2013-02-28 20:11:00,
2013-02-28 15:26:00,73.6,48.0,29.89,West,270,2.0,-999.0,41,-99.99,,,0.00,weatherlink.com 1.10,2013-02-28 20:26:00,
2013-02-28 15:42:00,73.6,48.0,29.88,WSW,252,8.0,-999.0,40,-99.99,,,0.00,weatherlink.com 1.10,2013-02-28 20:42:00,
2013-02-28 15:56:00,74.0,48.0,29.88,West,266,2.0,-999.0,40,-99.99,,,0.00,weatherlink.com 1.10,2013-02-28 20:56:00,
2013-02-28 16:11:00,73.9,47.0,29.88,NW,313,13.0,-999.0,39,-99.99,,,0.00,weatherlink.com 1.10,2013-02-28 21:11:00,
2013-02-28 16:26:00,73.6,46.0,29.88,WSW,255,1.0,-999.0,38,-99.99,,,0.00,weatherlink.com 1.10,2013-02-28 21:26:00,
2013-02-28 16:41:00,73.7,45.0,29.87,WSW,248,12.0,-999.0,36,-99.99,,,0.00,weatherlink.com 1.10,2013-02-28 21:41:00,
2013-02-28 16:57:00,73.1,43.0,29.88,West,275,8.0,-999.0,34,-99.99,,,0.00,weatherlink.com 1.10,2013-02-28 21:57:00,
2013-02-28 17:11:00,72.3,45.0,29.88,West,281,6.0,-999.0,38,-99.99,,,0.00,weatherlink.com 1.10,2013-02-28 22:11:00,
2013-02-28 17:26:00,71.7,45.0,29.88,WSW,249,6.0,-999.0,38,-99.99,,,0.00,weatherlink.com 1.10,2013-02-28 22:26:00,
2013-02-28 17:41:00,71.1,43.0,29.89,West,263,6.0,-999.0,37,-99.99,,,0.00,weatherlink.com 1.10,2013-02-28 22:41:00,
2013-02-28 17:56:00,70.3,44.0,29.90,WNW,299,7.0,-999.0,39,-99.99,,,0.00,weatherlink.com 1.10,2013-02-28 22:56:00,
2013-02-28 18:11:00,69.4,45.0,29.90,WSW,245,6.0,-999.0,42,-99.99,,,0.00,weatherlink.com 1.10,2013-02-28 23:11:00,
2013-02-28 18:26:00,68.5,46.0,29.90,WNW,284,4.0,-999.0,45,-99.99,,,0.00,weatherlink.com 1.10,2013-02-28 23:26:00,
2013-02-28 18:56:00,67.1,47.0,29.91,NW,316,4.0,-999.0,49,-99.99,,,0.00,weatherlink.com 1.10,2013-02-28 23:56:00,
2013-02-28 19:11:00,66.3,48.0,29.91,West,279,0.0,-999.0,53,-99.99,,,0.00,weatherlink.com 1.10,2013-03-01 00:11:00,
2013-02-28 19:26:00,65.5,49.0,29.92,NW,317,6.0,-999.0,56,-99.99,,,0.00,weatherlink.com 1.10,2013-03-01 00:26:00,
2013-02-28 19:41:00,64.8,50.0,29.93,West,275,2.0,-999.0,59,-99.99,,,0.00,weatherlink.com 1.10,2013-03-01 00:41:00,
2013-02-28 19:56:00,64.2,50.0,29.93,West,265,7.0,-999.0,61,-99.99,,,0.00,weatherlink.com 1.10,2013-03-01 00:56:00,
2013-02-28 20:11:00,63.7,51.0,29.93,WNW,290,3.0,-999.0,63,-99.99,,,0.00,weatherlink.com 1.10,2013-03-01 01:11:00,
2013-02-28 20:26:00,63.2,50.0,29.93,WNW,293,4.0,-999.0,63,-99.99,,,0.00,weatherlink.com 1.10,2013-03-01 01:26:00,
2013-02-28 20:41:00,62.9,50.0,29.93,West,269,8.0,-999.0,63,-99.99,,,0.00,weatherlink.com 1.10,2013-03-01 01:41:00,
2013-02-28 20:56:00,62.3,50.0,29.93,WNW,286,1.0,-999.0,65,-99.99,,,0.00,weatherlink.com 1.10,2013-03-01 01:56:00,
2013-02-28 21:11:00,61.9,50.0,29.93,West,275,4.0,-999.0,65,-99.99,,,0.00,weatherlink.com 1.10,2013-03-01 02:11:00,
2013-02-28 21:26:00,61.2,46.0,29.94,West,259,6.0,-999.0,57,-99.99,,,0.00,weatherlink.com 1.10,2013-03-01 02:26:00,
2013-02-28 21:42:00,60.6,46.0,29.94,NW,325,1.0,-999.0,60,-99.99,,,0.00,weatherlink.com 1.10,2013-03-01 02:42:00,
2013-02-28 21:56:00,60.1,47.0,29.94,West,273,1.0,-999.0,62,-99.99,,,0.00,weatherlink.com 1.10,2013-03-01 02:56:00,
2013-02-28 22:11:00,59.6,47.0,29.94,West,279,0.0,-999.0,63,-99.99,,,0.00,weatherlink.com 1.10,2013-03-01 03:11:00,
2013-02-28 22:26:00,59.3,47.0,29.94,West,271,5.0,-999.0,65,-99.99,,,0.00,weatherlink.com 1.10,2013-03-01 03:26:00,
2013-02-28 22:41:00,58.9,48.0,29.95,WSW,257,1.0,-999.0,67,-99.99,,,0.00,weatherlink.com 1.10,2013-03-01 03:41:00,
2013-02-28 22:56:00,58.6,48.0,29.95,West,272,4.0,-999.0,68,-99.99,,,0.00,weatherlink.com 1.10,2013-03-01 03:56:00,
2013-02-28 23:11:00,58.4,48.0,29.95,WNW,285,4.0,-999.0,69,-99.99,,,0.00,weatherlink.com 1.10,2013-03-01 04:11:00,
2013-02-28 23:26:00,58.4,49.0,29.95,WSW,255,0.0,-999.0,70,-99.99,,,0.00,weatherlink.com 1.10,2013-03-01 04:26:00,
2013-02-28 23:41:00,58.1,49.0,29.95,WSW,257,2.0,-999.0,71,-99.99,,,0.00,weatherlink.com 1.10,2013-03-01 04:41:00,
2013-02-28 23:57:00,57.7,49.0,29.94,West,266,0.0,-999.0,72,-99.99,,,0.00,weatherlink.com 1.10,2013-03-01 04:57:00,